createdAt,value
2022-12-27T00:00:49.032Z,92
2022-12-27T00:01:58.192Z,92.5
2022-12-27T00:03:07.364Z,91.5
2022-12-27T00:04:16.593Z,92
2022-12-27T00:05:25.724Z,92.5
2022-12-27T00:06:34.885Z,93
2022-12-27T00:07:44.072Z,92
2022-12-27T00:08:52.290Z,91.5
2022-12-27T00:10:00.438Z,92.5
2022-12-27T00:11:09.606Z,91.5
2022-12-27T00:12:18.872Z,93
2022-12-27T00:13:26.969Z,92.5
2022-12-27T00:14:35.204Z,93
2022-12-27T00:15:44.328Z,92.5
2022-12-27T00:16:53.515Z,92
2022-12-27T00:18:02.689Z,93
2022-12-27T00:19:11.848Z,93
2022-12-27T00:20:21.060Z,92.5
2022-12-27T00:21:30.195Z,92.5
2022-12-27T00:22:39.378Z,92
2022-12-27T00:23:48.563Z,93
2022-12-27T00:24:57.719Z,92.5
2022-12-27T00:26:06.894Z,92.5
2022-12-27T00:27:16.062Z,93
2022-12-27T00:28:25.235Z,92.5
2022-12-27T00:29:33.434Z,93
2022-12-27T00:30:42.604Z,92.5
2022-12-27T00:31:51.781Z,93
2022-12-27T00:33:00.996Z,93
2022-12-27T00:34:10.185Z,93
2022-12-27T00:35:19.305Z,93
2022-12-27T00:36:28.503Z,92.5
2022-12-27T00:37:36.662Z,92.5
2022-12-27T00:38:44.852Z,93
2022-12-27T00:39:54.027Z,92
2022-12-27T00:41:02.228Z,93
2022-12-27T00:42:10.406Z,92.5
2022-12-27T00:43:19.615Z,92.5
2022-12-27T00:44:28.752Z,92
2022-12-27T00:45:37.930Z,93
2022-12-27T00:46:47.097Z,92.5
2022-12-27T00:47:56.278Z,92.5
2022-12-27T00:49:05.440Z,92
2022-12-27T00:50:14.628Z,93
2022-12-27T00:51:23.790Z,92.5
2022-12-27T00:52:32.957Z,92.5
2022-12-27T00:53:42.135Z,92.5
2022-12-27T00:54:51.321Z,92.5
2022-12-27T00:56:00.495Z,92.5
2022-12-27T00:57:08.699Z,92.5
2022-12-27T00:58:17.877Z,93
2022-12-27T00:59:27.006Z,92.5
2022-12-27T01:00:36.231Z,93
2022-12-27T01:01:45.360Z,93.5
2022-12-27T01:02:54.561Z,92.5
2022-12-27T01:04:03.723Z,94
2022-12-27T01:05:12.874Z,93
2022-12-27T01:06:22.056Z,93
2022-12-27T01:07:31.208Z,93.5
2022-12-27T01:08:40.386Z,93
2022-12-27T01:09:49.557Z,93
2022-12-27T01:10:58.736Z,93
2022-12-27T01:12:06.922Z,93
2022-12-27T01:13:16.093Z,93.5
2022-12-27T01:14:25.281Z,94
2022-12-27T01:15:34.443Z,93.5
2022-12-27T01:16:43.612Z,94
2022-12-27T01:17:52.795Z,93.5
2022-12-27T01:19:01.973Z,94.5
2022-12-27T01:20:11.123Z,93
2022-12-27T01:21:20.327Z,93.5
2022-12-27T01:22:29.477Z,93.5
2022-12-27T01:23:38.652Z,93.5
2022-12-27T01:24:47.851Z,93.5
2022-12-27T01:27:06.183Z,94
2022-12-27T01:28:14.355Z,94
2022-12-27T01:29:23.530Z,95.5
2022-12-27T01:30:32.699Z,94.5
2022-12-27T01:31:41.874Z,94.5
2022-12-27T01:32:51.072Z,94.5
2022-12-27T01:34:00.298Z,93.5
2022-12-27T01:35:09.398Z,93.5
2022-12-27T01:36:18.571Z,95
2022-12-27T01:37:27.747Z,95
2022-12-27T01:38:36.913Z,94
2022-12-27T01:39:46.144Z,95
2022-12-27T01:40:55.263Z,95
2022-12-27T01:42:03.457Z,95
2022-12-27T01:43:11.645Z,95
2022-12-27T01:44:19.835Z,95.5
2022-12-27T01:45:28.023Z,95.5
2022-12-27T01:46:37.191Z,96.5
2022-12-27T01:47:46.386Z,95.5
2022-12-27T01:48:55.547Z,95.5
2022-12-27T01:50:04.711Z,96
2022-12-27T01:52:23.172Z,95.5
2022-12-27T01:53:32.290Z,96
2022-12-27T01:54:41.416Z,95
2022-12-27T01:55:50.583Z,95
2022-12-27T01:56:59.760Z,95.5
2022-12-27T01:59:18.102Z,96
2022-12-27T02:00:26.299Z,95
2022-12-27T02:01:34.480Z,95.5
2022-12-27T02:02:43.649Z,95.5
2022-12-27T02:03:52.829Z,95.5
2022-12-27T02:05:02.002Z,95.5
2022-12-27T02:06:11.175Z,95.5
2022-12-27T02:07:20.360Z,95.5
2022-12-27T02:08:29.522Z,95.5
2022-12-27T02:09:38.689Z,95.5
2022-12-27T02:10:47.873Z,96
2022-12-27T02:11:57.066Z,96.5
2022-12-27T02:13:05.308Z,96
2022-12-27T02:14:13.417Z,96.5
2022-12-27T02:15:22.585Z,96.5
2022-12-27T02:16:31.775Z,97
2022-12-27T02:17:40.933Z,97.5
2022-12-27T02:18:50.113Z,96.5
2022-12-27T02:19:59.283Z,96
2022-12-27T02:21:08.463Z,96.5
2022-12-27T02:22:17.631Z,97
2022-12-27T02:23:26.804Z,96.5
2022-12-27T02:24:35.968Z,96.5
2022-12-27T02:25:45.143Z,96.5
2022-12-27T02:26:54.317Z,97
2022-12-27T02:28:03.494Z,97
2022-12-27T02:29:11.685Z,96.5
2022-12-27T02:30:20.852Z,96.5
2022-12-27T02:31:30.028Z,97
2022-12-27T02:32:39.334Z,97
2022-12-27T02:33:48.373Z,96.5
2022-12-27T02:34:57.607Z,96
2022-12-27T02:36:06.718Z,97
2022-12-27T02:37:14.949Z,96.5
2022-12-27T02:38:23.112Z,97.5
2022-12-27T02:39:32.301Z,97
2022-12-27T02:40:40.474Z,97.5
2022-12-27T02:41:48.663Z,96.5
2022-12-27T02:42:57.827Z,97
2022-12-27T02:44:07.011Z,97
2022-12-27T02:46:25.357Z,98
2022-12-27T02:47:34.532Z,97
2022-12-27T02:48:43.697Z,98
2022-12-27T02:49:52.903Z,97.5
2022-12-27T02:51:02.043Z,97.5
2022-12-27T02:52:11.206Z,97.5
2022-12-27T02:53:20.393Z,96
2022-12-27T02:54:29.556Z,97.5
2022-12-27T02:55:38.739Z,97
2022-12-27T02:56:46.923Z,97
2022-12-27T02:57:56.091Z,97
2022-12-27T02:59:05.274Z,97
2022-12-27T03:01:23.613Z,97
2022-12-27T03:02:31.811Z,97.5
2022-12-27T03:03:40.039Z,97.5
2022-12-27T03:04:49.191Z,97.5
2022-12-27T03:05:58.348Z,97.5
2022-12-27T03:07:07.531Z,98
2022-12-27T03:08:16.707Z,96.5
2022-12-27T03:09:25.871Z,97
2022-12-27T03:10:35.045Z,97.5
2022-12-27T03:11:44.209Z,97
2022-12-27T03:12:53.380Z,97
2022-12-27T03:14:02.551Z,97.5
2022-12-27T03:15:10.742Z,97
2022-12-27T03:16:18.939Z,98
2022-12-27T03:17:28.134Z,98.5
2022-12-27T03:18:37.281Z,98.5
2022-12-27T03:19:46.495Z,98.5
2022-12-27T03:20:55.628Z,99
2022-12-27T03:22:04.801Z,99
2022-12-27T03:23:13.973Z,99
2022-12-27T03:24:23.145Z,98
2022-12-27T03:25:32.318Z,99
2022-12-27T03:27:50.663Z,98.5
2022-12-27T03:28:59.845Z,98
2022-12-27T03:30:09.013Z,97.5
2022-12-27T03:31:17.220Z,98.5
2022-12-27T03:32:26.375Z,97.5
2022-12-27T03:33:35.572Z,98
2022-12-27T03:34:44.712Z,98
2022-12-27T03:35:53.896Z,97.5
2022-12-27T03:37:02.085Z,98.5
2022-12-27T03:38:11.280Z,98
2022-12-27T03:39:20.522Z,97.5
2022-12-27T03:40:29.598Z,98.5
2022-12-27T03:41:38.784Z,98
2022-12-27T03:42:47.945Z,97.5
2022-12-27T03:43:57.113Z,97.5
2022-12-27T03:45:06.289Z,97
2022-12-27T03:46:15.470Z,97
2022-12-27T03:47:24.646Z,97.5
2022-12-27T03:48:32.830Z,97.5
2022-12-27T03:49:41.019Z,98
2022-12-27T03:50:50.222Z,97
2022-12-27T03:51:59.369Z,97
2022-12-27T03:53:07.605Z,98.5
2022-12-27T03:54:15.752Z,97
2022-12-27T03:55:24.959Z,97.5
2022-12-27T03:57:43.269Z,98
2022-12-27T03:58:52.457Z,97.5
2022-12-27T04:00:01.608Z,97.5
2022-12-27T04:01:10.793Z,98
2022-12-27T04:02:19.967Z,98.5
2022-12-27T04:03:29.138Z,98
2022-12-27T04:04:38.312Z,98
2022-12-27T04:05:47.504Z,98.5
2022-12-27T04:06:56.645Z,98
2022-12-27T04:08:05.829Z,98
2022-12-27T04:09:14.015Z,98
2022-12-27T04:10:23.189Z,98.5
2022-12-27T04:11:32.374Z,98.5
2022-12-27T04:12:41.531Z,98
2022-12-27T04:13:50.704Z,98.5
2022-12-27T04:14:59.876Z,98.5
2022-12-27T04:16:09.062Z,98
2022-12-27T04:17:18.213Z,98
2022-12-27T04:18:27.411Z,98
2022-12-27T04:20:44.762Z,98
2022-12-27T04:21:52.954Z,98
2022-12-27T04:23:01.148Z,98
2022-12-27T04:24:09.330Z,98.5
2022-12-27T04:25:17.525Z,98.5
2022-12-27T04:26:26.729Z,98
2022-12-27T04:27:35.931Z,97.5
2022-12-27T04:28:45.068Z,98.5
2022-12-27T04:29:54.228Z,99
2022-12-27T04:31:03.400Z,98.5
2022-12-27T04:32:12.567Z,99
2022-12-27T04:33:21.730Z,99
2022-12-27T04:34:30.917Z,99
2022-12-27T04:35:40.080Z,98
2022-12-27T04:36:49.249Z,98.5
2022-12-27T04:37:58.419Z,99
2022-12-27T04:39:07.600Z,99
2022-12-27T04:40:15.791Z,99
2022-12-27T04:41:24.969Z,98.5
2022-12-27T04:42:34.154Z,98.5
2022-12-27T04:43:43.324Z,98
2022-12-27T04:44:52.492Z,98.5
2022-12-27T04:46:01.656Z,99
2022-12-27T04:47:10.832Z,99
2022-12-27T04:48:19.026Z,99
2022-12-27T04:49:27.212Z,99
2022-12-27T04:50:35.406Z,99.5
2022-12-27T04:51:43.598Z,99.5
2022-12-27T04:52:52.791Z,99.5
2022-12-27T04:54:01.946Z,99.5
2022-12-27T04:55:11.118Z,99.5
2022-12-27T04:57:29.466Z,99.5
2022-12-27T04:58:38.647Z,99.5
2022-12-27T04:59:47.919Z,99
2022-12-27T05:00:56.979Z,99
2022-12-27T05:02:06.159Z,99
2022-12-27T05:03:15.323Z,99
2022-12-27T05:04:24.495Z,99.5
2022-12-27T05:05:33.676Z,99.5
2022-12-27T05:06:41.861Z,99.5
2022-12-27T05:07:51.031Z,99.5
2022-12-27T05:09:00.200Z,99.5
2022-12-27T05:10:09.388Z,99
2022-12-27T05:11:18.542Z,99
2022-12-27T05:12:27.714Z,98.5
2022-12-27T05:13:36.889Z,99
2022-12-27T05:14:46.056Z,99
2022-12-27T05:15:54.276Z,99.5
2022-12-27T05:17:02.452Z,99.5
2022-12-27T05:18:11.616Z,99.5
2022-12-27T05:19:19.817Z,99.5
2022-12-27T05:20:27.993Z,99
2022-12-27T05:21:37.170Z,99.5
2022-12-27T05:22:46.349Z,99.5
2022-12-27T05:23:55.773Z,99
2022-12-27T05:25:04.747Z,99.5
2022-12-27T05:26:13.871Z,99.5
2022-12-27T05:27:23.037Z,99.5
2022-12-27T05:28:32.216Z,99.5
2022-12-27T05:29:41.436Z,99.5
2022-12-27T05:30:50.595Z,99.5
2022-12-27T05:31:59.729Z,99.5
2022-12-27T05:33:08.911Z,99.5
2022-12-27T05:34:18.081Z,99.5
2022-12-27T05:35:26.312Z,99.5
2022-12-27T05:36:35.479Z,99.5
2022-12-27T05:37:44.608Z,99.5
2022-12-27T05:38:53.770Z,99.5
2022-12-27T05:40:02.978Z,99.5
2022-12-27T05:41:12.126Z,99.5
2022-12-27T05:42:21.361Z,99.5
2022-12-27T05:43:29.537Z,99.5
2022-12-27T05:44:37.738Z,99
2022-12-27T05:45:46.935Z,99.5
2022-12-27T05:46:56.096Z,99.5
2022-12-27T05:48:05.279Z,99.5
2022-12-27T05:49:14.404Z,99.5
2022-12-27T05:50:23.564Z,99
2022-12-27T05:51:32.752Z,99
2022-12-27T05:52:41.984Z,99.5
2022-12-27T05:53:51.265Z,99
2022-12-27T05:55:00.269Z,99.5
2022-12-27T05:56:09.411Z,99.5
2022-12-27T05:57:18.709Z,98.5
2022-12-27T05:58:27.757Z,99
2022-12-27T05:59:35.965Z,99
2022-12-27T06:00:45.177Z,98.5
2022-12-27T06:01:53.356Z,98
2022-12-27T06:03:01.499Z,99
2022-12-27T06:04:10.705Z,98.5
2022-12-27T06:05:19.889Z,99.5
2022-12-27T06:06:29.100Z,99
2022-12-27T06:07:38.331Z,99.5
2022-12-27T06:08:47.369Z,98.5
2022-12-27T06:09:56.542Z,99
2022-12-27T06:11:05.723Z,99
2022-12-27T06:12:14.888Z,98
2022-12-27T06:13:24.093Z,98
2022-12-27T06:14:33.297Z,99
2022-12-27T06:15:42.399Z,98
2022-12-27T06:16:51.571Z,99
2022-12-27T06:17:59.824Z,98
2022-12-27T06:19:09.059Z,98.5
2022-12-27T06:20:18.188Z,98
2022-12-27T06:21:27.357Z,98.5
2022-12-27T06:22:36.467Z,99
2022-12-27T06:23:45.727Z,99
2022-12-27T06:24:54.856Z,98
2022-12-27T06:26:03.028Z,98.5
2022-12-27T06:27:11.192Z,99.5
2022-12-27T06:28:20.467Z,99
2022-12-27T06:29:29.565Z,99
2022-12-27T06:30:38.774Z,98
2022-12-27T06:31:48.035Z,98.5
2022-12-27T06:32:56.125Z,98
2022-12-27T06:34:04.311Z,98
2022-12-27T06:35:13.449Z,98
2022-12-27T06:36:22.672Z,98
2022-12-27T06:37:31.785Z,97.5
2022-12-27T06:38:41.024Z,98
2022-12-27T06:39:50.170Z,98
2022-12-27T06:40:59.297Z,99
2022-12-27T06:42:08.555Z,98.5
2022-12-27T06:43:17.716Z,98.5
2022-12-27T06:44:26.824Z,99
2022-12-27T06:45:36.182Z,99
2022-12-27T06:46:45.302Z,99
2022-12-27T06:47:54.418Z,99
2022-12-27T06:49:02.544Z,99
2022-12-27T06:50:11.706Z,99.5
2022-12-27T06:51:20.878Z,99
2022-12-27T06:52:30.057Z,99
2022-12-27T06:53:39.299Z,99.5
2022-12-27T06:54:48.502Z,98.5
2022-12-27T06:55:57.565Z,98.5
2022-12-27T06:57:05.756Z,99
2022-12-27T06:58:15.031Z,98.5
2022-12-27T06:59:23.200Z,98.5
2022-12-27T07:00:31.329Z,99
2022-12-27T07:01:39.509Z,98.5
2022-12-27T07:02:48.692Z,99
2022-12-27T07:03:58.001Z,98.5
2022-12-27T07:05:07.109Z,99.5
2022-12-27T07:06:16.198Z,99.5
2022-12-27T07:07:25.381Z,99.5
2022-12-27T07:08:34.546Z,99.5
2022-12-27T07:09:43.870Z,99
2022-12-27T07:10:52.982Z,99
2022-12-27T07:12:02.058Z,99.5
2022-12-27T07:13:11.223Z,99.5
2022-12-27T07:14:20.408Z,99.5
2022-12-27T07:15:29.588Z,99.5
2022-12-27T07:16:37.762Z,99.5
2022-12-27T07:17:46.954Z,99.5
2022-12-27T07:18:56.142Z,99.5
2022-12-27T07:20:05.301Z,99.5
2022-12-27T07:21:14.532Z,99.5
2022-12-27T07:22:23.623Z,99.5
2022-12-27T07:23:32.805Z,99.5
2022-12-27T07:24:40.998Z,99.5
2022-12-27T07:25:49.249Z,99.5
2022-12-27T07:26:58.393Z,99.5
2022-12-27T07:28:06.562Z,99.5
2022-12-27T07:29:14.761Z,99.5
2022-12-27T07:30:23.937Z,99.5
2022-12-27T07:31:33.150Z,99.5
2022-12-27T07:32:42.277Z,99.5
2022-12-27T07:33:51.455Z,99.5
2022-12-27T07:35:00.623Z,99.5
2022-12-27T07:36:09.833Z,99.5
2022-12-27T07:37:18.960Z,99.5
2022-12-27T07:38:28.133Z,99.5
2022-12-27T07:39:37.306Z,99.5
2022-12-27T07:40:46.474Z,99.5
2022-12-27T07:41:55.653Z,99.5
2022-12-27T07:43:04.833Z,99.5
2022-12-27T07:44:13.132Z,99.5
2022-12-27T07:45:22.197Z,99.5
2022-12-27T07:46:31.410Z,99.5
2022-12-27T07:47:40.578Z,99.5
2022-12-27T07:48:49.727Z,99.5
2022-12-27T07:49:58.895Z,99.5
2022-12-27T07:51:08.051Z,99.5
2022-12-27T07:52:16.389Z,99.5
2022-12-27T07:53:24.434Z,99.5
2022-12-27T07:54:33.614Z,99.5
2022-12-27T07:55:42.783Z,99.5
2022-12-27T07:56:50.997Z,99.5
2022-12-27T07:57:59.217Z,99.5
2022-12-27T07:59:08.352Z,99.5
2022-12-27T08:00:17.586Z,99.5
2022-12-27T08:01:26.700Z,99.5
2022-12-27T08:02:36.004Z,99.5
2022-12-27T08:03:45.048Z,99.5
2022-12-27T08:04:54.339Z,99.5
2022-12-27T08:06:03.479Z,99.5
2022-12-27T08:07:12.547Z,99.5
2022-12-27T08:08:21.803Z,99.5
2022-12-27T08:09:31.041Z,99.5
2022-12-27T08:10:40.067Z,99.5
2022-12-27T08:11:49.286Z,99.5
2022-12-27T08:12:57.421Z,99
2022-12-27T08:14:06.742Z,99.5
2022-12-27T08:15:15.819Z,99
2022-12-27T08:16:24.950Z,98.5
2022-12-27T08:17:34.146Z,99
2022-12-27T08:18:43.425Z,99.5
2022-12-27T08:19:52.468Z,99.5
2022-12-27T08:21:00.715Z,99.5
2022-12-27T08:22:08.849Z,99
2022-12-27T08:23:18.122Z,99
2022-12-27T08:24:27.230Z,98.5
2022-12-27T08:25:36.367Z,99
2022-12-27T08:26:44.642Z,99.5
2022-12-27T08:27:52.760Z,99
2022-12-27T08:29:01.986Z,99.5
2022-12-27T08:30:11.105Z,99
2022-12-27T08:31:20.308Z,98.5
2022-12-27T08:32:29.465Z,98.5
2022-12-27T08:33:38.612Z,98.5
2022-12-27T08:34:47.805Z,99
2022-12-27T08:35:56.958Z,98.5
2022-12-27T08:38:15.381Z,98
2022-12-27T08:39:24.619Z,98
2022-12-27T08:40:33.646Z,97.5
2022-12-27T08:41:42.869Z,98
2022-12-27T08:42:51.120Z,98
2022-12-27T08:44:00.287Z,97
2022-12-27T08:45:09.484Z,98.5
2022-12-27T08:46:18.557Z,98
2022-12-27T08:47:27.716Z,98.5
2022-12-27T08:48:36.937Z,97.5
2022-12-27T08:49:46.150Z,97
2022-12-27T08:50:55.371Z,96
2022-12-27T08:52:03.467Z,96.5
2022-12-27T08:53:11.613Z,96
2022-12-27T08:54:19.883Z,95.5
2022-12-27T08:55:28.010Z,95
2022-12-27T08:56:37.211Z,95
2022-12-27T08:57:46.396Z,95
2022-12-27T08:58:55.561Z,94
2022-12-27T09:00:04.674Z,94.5
2022-12-27T09:01:13.978Z,94
2022-12-27T09:02:23.037Z,93
2022-12-27T09:03:32.201Z,92
2022-12-27T09:04:41.364Z,93
2022-12-27T09:05:50.551Z,92.5
2022-12-27T09:06:59.718Z,92.5
2022-12-27T09:08:09.096Z,92
2022-12-27T09:09:18.081Z,91
2022-12-27T09:10:26.360Z,91
2022-12-27T09:12:44.611Z,91.5
2022-12-27T09:13:53.801Z,91
2022-12-27T09:15:02.948Z,90.5
2022-12-27T09:16:12.104Z,90.5
2022-12-27T09:17:21.383Z,92
2022-12-27T09:18:30.543Z,91.5
2022-12-27T09:19:39.694Z,92
2022-12-27T09:20:48.813Z,91
2022-12-27T09:21:57.980Z,91.5
2022-12-27T09:23:07.171Z,92
2022-12-27T09:24:16.329Z,92.5
2022-12-27T09:25:24.510Z,91.5
2022-12-27T09:26:33.800Z,92
2022-12-27T09:27:42.857Z,90
2022-12-27T09:28:52.096Z,91
2022-12-27T09:30:01.205Z,89
2022-12-27T09:31:10.445Z,89
2022-12-27T09:32:19.578Z,90
2022-12-27T09:33:28.726Z,90.5
2022-12-27T09:34:37.883Z,92
2022-12-27T09:35:47.059Z,90
2022-12-27T09:36:56.329Z,91
2022-12-27T09:38:05.422Z,89
2022-12-27T09:39:14.638Z,88.5
2022-12-27T09:40:22.857Z,87
2022-12-27T09:41:31.944Z,86.5
2022-12-27T09:42:41.123Z,88.5
2022-12-27T09:43:50.285Z,89
2022-12-27T09:44:59.472Z,91.5
2022-12-27T09:46:08.634Z,91
2022-12-27T09:47:17.811Z,92
2022-12-27T09:48:25.995Z,91
2022-12-27T09:50:44.351Z,90
2022-12-27T09:51:52.541Z,90.5
2022-12-27T09:53:01.784Z,90
2022-12-27T09:54:10.894Z,90
2022-12-27T09:55:20.114Z,91
2022-12-27T09:56:28.297Z,91
2022-12-27T09:57:36.448Z,91.5
2022-12-27T09:58:45.613Z,91
2022-12-27T09:59:54.798Z,89.5
2022-12-27T10:01:03.961Z,90.5
2022-12-27T10:02:13.151Z,92
2022-12-27T10:03:22.297Z,91.5
2022-12-27T10:04:31.524Z,91
2022-12-27T10:05:40.734Z,91
2022-12-27T10:06:49.913Z,90
2022-12-27T10:07:59.082Z,90
2022-12-27T10:09:08.159Z,91
2022-12-27T10:10:17.441Z,90.5
2022-12-27T10:11:26.553Z,88
2022-12-27T10:12:34.868Z,87.5
2022-12-27T10:13:44.015Z,87.5
2022-12-27T10:14:53.166Z,88.5
2022-12-27T10:16:02.336Z,91.5
2022-12-27T10:17:11.525Z,93
2022-12-27T10:18:20.623Z,95
2022-12-27T10:19:29.841Z,95.5
2022-12-27T10:20:39.023Z,95.5
2022-12-27T10:21:47.260Z,97
2022-12-27T10:22:55.464Z,96.5
2022-12-27T10:24:03.620Z,95.5
2022-12-27T10:25:11.762Z,96
2022-12-27T10:26:20.974Z,95.5
2022-12-27T10:27:30.099Z,96
2022-12-27T10:28:39.339Z,94
2022-12-27T10:29:48.440Z,93.5
2022-12-27T10:30:57.644Z,93.5
2022-12-27T10:32:06.807Z,94.5
2022-12-27T10:33:15.927Z,95
2022-12-27T10:34:25.152Z,95.5
2022-12-27T10:35:34.261Z,95.5
2022-12-27T10:36:43.440Z,96
2022-12-27T10:37:52.587Z,94.5
2022-12-27T10:39:01.770Z,94.5
2022-12-27T10:40:10.008Z,93
2022-12-27T10:41:19.109Z,93.5
2022-12-27T10:42:28.275Z,95
2022-12-27T10:43:37.441Z,95.5
2022-12-27T10:44:46.667Z,96
2022-12-27T10:45:55.820Z,95.5
2022-12-27T10:47:05.032Z,96.5
2022-12-27T10:48:13.189Z,95.5
2022-12-27T10:49:21.368Z,95.5
2022-12-27T10:50:29.569Z,96.5
2022-12-27T10:51:37.733Z,95.5
2022-12-27T10:52:46.907Z,95.5
2022-12-27T10:53:56.073Z,95.5
2022-12-27T10:55:05.257Z,95.5
2022-12-27T10:56:14.509Z,95
2022-12-27T10:57:23.675Z,96
2022-12-27T10:58:32.769Z,96
2022-12-27T10:59:41.999Z,96
2022-12-27T11:00:51.120Z,95
2022-12-27T11:02:00.302Z,93.5
2022-12-27T11:03:09.456Z,94
2022-12-27T11:04:18.680Z,93
2022-12-27T11:06:37.110Z,93.5
2022-12-27T11:07:45.165Z,91.5
2022-12-27T11:08:54.341Z,89.5
2022-12-27T11:10:03.515Z,92
2022-12-27T11:11:12.678Z,89.5
2022-12-27T11:12:21.860Z,91
2022-12-27T11:13:31.033Z,91
2022-12-27T11:14:40.205Z,90
2022-12-27T11:15:49.473Z,89.5
2022-12-27T11:16:58.557Z,86
2022-12-27T11:18:07.713Z,85
2022-12-27T11:19:15.918Z,87.5
2022-12-27T11:20:25.081Z,87
2022-12-27T11:21:34.367Z,86
2022-12-27T11:23:52.603Z,88
2022-12-27T11:25:01.827Z,87.5
2022-12-27T11:26:10.958Z,87
2022-12-27T11:27:19.137Z,88
2022-12-27T11:28:27.418Z,89.5
2022-12-27T11:29:35.569Z,88.5
2022-12-27T11:30:43.888Z,89
2022-12-27T11:31:52.956Z,86.5
2022-12-27T11:33:02.086Z,87
2022-12-27T11:34:11.301Z,88
2022-12-27T11:35:20.409Z,88.5
2022-12-27T11:36:29.665Z,89
2022-12-27T11:37:38.886Z,87.5
2022-12-27T11:38:48.024Z,87
2022-12-27T11:39:57.238Z,91
2022-12-27T11:41:06.432Z,90
2022-12-27T11:42:15.607Z,89.5
2022-12-27T11:43:24.717Z,88.5
2022-12-27T11:44:33.856Z,90.5
2022-12-27T11:45:42.127Z,92
2022-12-27T11:46:51.237Z,92.5
2022-12-27T11:49:09.552Z,92
2022-12-27T11:50:18.670Z,93
2022-12-27T11:51:27.904Z,92
2022-12-27T11:52:37.172Z,89.5
2022-12-27T11:53:46.271Z,89
2022-12-27T11:54:54.385Z,89.5
2022-12-27T11:56:02.623Z,89.5
2022-12-27T11:57:11.826Z,87
2022-12-27T11:58:20.912Z,88
2022-12-27T11:59:30.118Z,88.5
2022-12-27T12:00:39.247Z,87
2022-12-27T12:01:48.421Z,85.5
2022-12-27T12:02:57.627Z,87.5
2022-12-27T12:04:06.799Z,89
2022-12-27T12:05:15.952Z,89
2022-12-27T12:06:25.132Z,87.5
2022-12-27T12:07:34.303Z,89.5
2022-12-27T12:08:43.486Z,91
2022-12-27T12:09:52.629Z,90
2022-12-27T12:11:00.898Z,88
2022-12-27T12:12:10.092Z,87.5
2022-12-27T12:13:19.173Z,89
2022-12-27T12:14:28.337Z,90
2022-12-27T12:15:37.624Z,91
2022-12-27T12:16:46.724Z,90.5
2022-12-27T12:17:55.948Z,90
2022-12-27T12:19:04.086Z,90
2022-12-27T12:20:12.232Z,91.5
2022-12-27T12:21:21.435Z,90.5
2022-12-27T12:22:29.662Z,90.5
2022-12-27T12:23:37.991Z,89.5
2022-12-27T12:24:47.108Z,89.5
2022-12-27T12:25:56.150Z,90
2022-12-27T12:27:05.337Z,90.5
2022-12-27T12:28:14.479Z,90
2022-12-27T12:29:23.663Z,88
2022-12-27T12:30:32.941Z,88
2022-12-27T12:31:42.034Z,87
2022-12-27T12:32:51.219Z,88
2022-12-27T12:34:00.343Z,88
2022-12-27T12:35:09.528Z,90
2022-12-27T12:36:18.714Z,91
2022-12-27T12:37:27.917Z,89
2022-12-27T12:38:36.059Z,90.5
2022-12-27T12:39:45.221Z,89.5
2022-12-27T12:40:54.406Z,90.5
2022-12-27T12:42:03.638Z,87.5
2022-12-27T12:43:12.771Z,89
2022-12-27T12:44:21.956Z,89.5
2022-12-27T12:45:31.100Z,90.5
2022-12-27T12:46:40.337Z,89.5
2022-12-27T12:47:49.436Z,91
2022-12-27T12:48:58.652Z,91.5
2022-12-27T12:50:07.773Z,90
2022-12-27T12:51:16.950Z,91.5
2022-12-27T12:52:25.163Z,91
2022-12-27T12:53:34.374Z,91
2022-12-27T12:54:43.492Z,90.5
2022-12-27T12:55:51.799Z,90.5
2022-12-27T12:56:59.896Z,91.5
2022-12-27T12:58:09.048Z,92
2022-12-27T12:59:18.215Z,91.5
2022-12-27T13:01:36.562Z,91
2022-12-27T13:02:45.757Z,90.5
2022-12-27T13:03:54.902Z,90.5
2022-12-27T13:05:04.073Z,90
2022-12-27T13:06:13.303Z,90.5
2022-12-27T13:07:22.424Z,89.5
2022-12-27T13:08:31.595Z,90.5
2022-12-27T13:09:40.838Z,91
2022-12-27T13:10:49.953Z,89
2022-12-27T13:11:58.191Z,89
2022-12-27T13:14:16.463Z,88.5
2022-12-27T13:15:24.667Z,86
2022-12-27T13:16:33.858Z,88.5
2022-12-27T13:17:42.030Z,87.5
2022-12-27T13:18:51.203Z,87
2022-12-27T13:21:09.567Z,89
2022-12-27T13:22:18.717Z,88
2022-12-27T13:23:27.896Z,89.5
2022-12-27T13:24:37.061Z,88.5
2022-12-27T13:25:46.271Z,89
2022-12-27T13:26:55.406Z,89
2022-12-27T13:28:04.575Z,90.5
2022-12-27T13:29:13.744Z,89.5
2022-12-27T13:30:23.002Z,90.5
2022-12-27T13:31:32.098Z,89.5
2022-12-27T13:32:40.343Z,89.5
2022-12-27T13:33:49.455Z,88.5
2022-12-27T13:34:58.635Z,89.5
2022-12-27T13:36:07.817Z,90
2022-12-27T13:37:16.970Z,90
2022-12-27T13:38:26.140Z,89
2022-12-27T13:39:35.321Z,89
2022-12-27T13:40:43.509Z,88
2022-12-27T13:41:51.760Z,86.5
2022-12-27T13:43:00.881Z,87.5
2022-12-27T13:44:10.045Z,87.5
2022-12-27T13:45:19.220Z,87.5
2022-12-27T13:46:28.389Z,87.5
2022-12-27T13:47:37.625Z,87
2022-12-27T13:48:46.754Z,86
2022-12-27T13:49:55.915Z,86
2022-12-27T13:51:04.121Z,87.5
2022-12-27T13:52:12.286Z,88.5
2022-12-27T13:53:21.467Z,87.5
2022-12-27T13:54:30.628Z,87.5
2022-12-27T13:55:39.859Z,86
2022-12-27T13:56:48.985Z,86
2022-12-27T13:57:58.215Z,87
2022-12-27T13:59:07.339Z,88
2022-12-27T14:00:16.498Z,90.5
2022-12-27T14:01:25.669Z,90
2022-12-27T14:02:34.838Z,89.5
2022-12-27T14:03:44.031Z,90
2022-12-27T14:04:53.185Z,91
2022-12-27T14:06:02.363Z,89.5
2022-12-27T14:07:10.544Z,90
2022-12-27T14:08:19.722Z,90
2022-12-27T14:09:28.892Z,89
2022-12-27T14:10:38.064Z,89
2022-12-27T14:11:47.233Z,89
2022-12-27T14:14:05.607Z,89.5
2022-12-27T14:15:14.756Z,89.5
2022-12-27T14:16:23.932Z,90.5
2022-12-27T14:17:33.110Z,90
2022-12-27T14:18:41.317Z,90.5
2022-12-27T14:19:49.528Z,91
2022-12-27T14:20:58.721Z,90
2022-12-27T14:22:06.912Z,90.5
2022-12-27T14:23:15.034Z,90
2022-12-27T14:24:24.227Z,91.5
2022-12-27T14:25:33.397Z,90.5
2022-12-27T14:26:42.556Z,91.5
2022-12-27T14:27:51.732Z,91.5
2022-12-27T14:29:00.906Z,90.5
2022-12-27T14:30:10.077Z,91
2022-12-27T14:31:19.247Z,91
2022-12-27T14:32:28.405Z,90.5
2022-12-27T14:33:37.617Z,91.5
2022-12-27T14:34:46.765Z,90.5
2022-12-27T14:35:55.938Z,90
2022-12-27T14:37:05.115Z,90.5
2022-12-27T14:38:13.291Z,91.5
2022-12-27T14:39:22.470Z,90
2022-12-27T14:40:31.650Z,90
2022-12-27T14:41:40.842Z,90
2022-12-27T14:42:49.996Z,90
2022-12-27T14:43:59.161Z,91
2022-12-27T14:45:08.333Z,90
2022-12-27T14:46:16.541Z,91
2022-12-27T14:47:25.708Z,91
2022-12-27T14:48:33.988Z,92
2022-12-27T14:49:43.061Z,90.5
2022-12-27T14:50:52.265Z,91.5
2022-12-27T14:52:01.407Z,91
2022-12-27T14:53:09.610Z,91.5
2022-12-27T14:54:17.793Z,91.5
2022-12-27T14:55:26.963Z,92
2022-12-27T14:56:36.131Z,91
2022-12-27T14:57:45.311Z,92
2022-12-27T14:58:54.501Z,92
2022-12-27T15:00:03.653Z,92.5
2022-12-27T15:01:12.834Z,92.5
2022-12-27T15:02:22.015Z,93
2022-12-27T15:03:31.172Z,93
2022-12-27T15:04:40.362Z,92.5
2022-12-27T15:05:49.519Z,92
2022-12-27T15:06:58.720Z,92
2022-12-27T15:08:07.952Z,91.5
2022-12-27T15:09:16.064Z,91.5
2022-12-27T15:10:24.259Z,93
2022-12-27T15:11:33.417Z,92
2022-12-27T15:12:42.584Z,92
2022-12-27T15:13:51.804Z,92
2022-12-27T15:15:00.950Z,91.5
2022-12-27T15:16:10.122Z,92
2022-12-27T15:17:18.302Z,92
2022-12-27T15:18:27.507Z,91.5
2022-12-27T15:19:35.688Z,92
2022-12-27T15:20:44.923Z,92
2022-12-27T15:21:53.034Z,92
2022-12-27T15:23:01.221Z,92
2022-12-27T15:24:10.424Z,92.5
2022-12-27T15:25:19.567Z,91.5
2022-12-27T15:26:28.745Z,92.5
2022-12-27T15:27:37.959Z,92.5
2022-12-27T15:28:47.143Z,92
2022-12-27T15:29:56.259Z,92.5
2022-12-27T15:31:05.422Z,92
2022-12-27T15:32:14.661Z,92
2022-12-27T15:33:23.838Z,93
2022-12-27T15:34:32.947Z,92.5
2022-12-27T15:35:42.120Z,92.5
2022-12-27T15:36:51.287Z,92
2022-12-27T15:37:59.481Z,93
2022-12-27T15:39:08.704Z,93
2022-12-27T15:40:17.828Z,93
2022-12-27T15:41:27.091Z,93
2022-12-27T15:42:36.171Z,93
2022-12-27T15:43:45.354Z,92.5
2022-12-27T15:44:54.515Z,93
2022-12-27T15:46:03.728Z,94
2022-12-27T15:47:12.863Z,93.5
2022-12-27T15:48:21.060Z,93
2022-12-27T15:49:29.248Z,93.5
2022-12-27T15:50:38.420Z,93.5
2022-12-27T15:51:47.585Z,93
2022-12-27T15:52:55.773Z,93
2022-12-27T15:54:03.967Z,93
2022-12-27T15:55:13.154Z,93.5
2022-12-27T15:56:22.320Z,94
2022-12-27T15:57:31.495Z,94.5
2022-12-27T15:58:40.652Z,94
2022-12-27T16:00:59.002Z,93.5
2022-12-27T16:02:08.184Z,94
2022-12-27T16:03:17.349Z,95
2022-12-27T16:04:26.523Z,94.5
2022-12-27T16:05:35.708Z,94.5
2022-12-27T16:06:44.953Z,94.5
2022-12-27T16:07:54.040Z,94.5
2022-12-27T16:09:02.293Z,95
2022-12-27T16:10:11.408Z,94
2022-12-27T16:11:20.573Z,94
2022-12-27T16:12:29.750Z,95